sensor_id;sensor_type;location;lat;lon;timestamp;pressure;altitude;pressure_sealevel;temperature;humidity
13027;BME280;6580;42.680;23.324;2023-05-19T00:00:50;95512.72;;;13.14;100.00
13027;BME280;6580;42.680;23.324;2023-05-19T00:03:40;95507.22;;;13.15;100.00
13027;BME280;6580;42.680;23.324;2023-05-19T00:06:36;95509.75;;;13.09;100.00
13027;BME280;6580;42.680;23.324;2023-05-19T00:09:22;95506.38;;;13.15;100.00
13027;BME280;6580;42.680;23.324;2023-05-19T00:12:09;95499.19;;;13.07;100.00
13027;BME280;6580;42.680;23.324;2023-05-19T00:14:56;95504.03;;;13.12;100.00
13027;BME280;6580;42.680;23.324;2023-05-19T00:17:42;95505.22;;;13.17;100.00
13027;BME280;6580;42.680;23.324;2023-05-19T00:20:31;95503.72;;;13.15;100.00
13027;BME280;6580;42.680;23.324;2023-05-19T00:23:20;95489.84;;;13.19;100.00
13027;BME280;6580;42.680;23.324;2023-05-19T00:26:07;95483.84;;;13.17;100.00
13027;BME280;6580;42.680;23.324;2023-05-19T00:28:53;95478.81;;;12.98;100.00
13027;BME280;6580;42.680;23.324;2023-05-19T00:31:40;95490.97;;;12.93;100.00
13027;BME280;6580;42.680;23.324;2023-05-19T00:34:25;95489.97;;;12.86;100.00
13027;BME280;6580;42.680;23.324;2023-05-19T00:37:14;95497.34;;;13.00;100.00
13027;BME280;6580;42.680;23.324;2023-05-19T00:40:00;95491.03;;;13.09;100.00
13027;BME280;6580;42.680;23.324;2023-05-19T00:42:45;95487.31;;;13.18;100.00
13027;BME280;6580;42.680;23.324;2023-05-19T00:45:33;95474.78;;;13.02;100.00
13027;BME280;6580;42.680;23.324;2023-05-19T00:48:20;95482.63;;;12.96;100.00
13027;BME280;6580;42.680;23.324;2023-05-19T00:51:07;95482.66;;;13.04;100.00
13027;BME280;6580;42.680;23.324;2023-05-19T00:53:59;95473.28;;;13.00;100.00
13027;BME280;6580;42.680;23.324;2023-05-19T00:56:46;95472.44;;;12.91;100.00
13027;BME280;6580;42.680;23.324;2023-05-19T00:59:33;95481.31;;;12.92;100.00
13027;BME280;6580;42.680;23.324;2023-05-19T01:02:19;95480.91;;;12.71;100.00
13027;BME280;6580;42.680;23.324;2023-05-19T01:05:11;95481.59;;;12.81;100.00
13027;BME280;6580;42.680;23.324;2023-05-19T01:08:05;95474.88;;;12.61;100.00
13027;BME280;6580;42.680;23.324;2023-05-19T01:10:53;95483.56;;;12.55;100.00
13027;BME280;6580;42.680;23.324;2023-05-19T01:13:42;95480.69;;;12.48;100.00
13027;BME280;6580;42.680;23.324;2023-05-19T01:16:34;95478.03;;;12.56;100.00
13027;BME280;6580;42.680;23.324;2023-05-19T01:19:45;95498.56;;;12.48;100.00
13027;BME280;6580;42.680;23.324;2023-05-19T01:29:30;95487.16;;;12.38;100.00
13027;BME280;6580;42.680;23.324;2023-05-19T01:32:25;95494.31;;;12.29;100.00
13027;BME280;6580;42.680;23.324;2023-05-19T01:35:13;95490.50;;;12.32;100.00
13027;BME280;6580;42.680;23.324;2023-05-19T01:38:02;95484.34;;;12.39;100.00
13027;BME280;6580;42.680;23.324;2023-05-19T01:40:51;95490.50;;;12.32;100.00
13027;BME280;6580;42.680;23.324;2023-05-19T01:43:49;95498.16;;;12.27;100.00
13027;BME280;6580;42.680;23.324;2023-05-19T01:46:37;95496.34;;;12.27;100.00
13027;BME280;6580;42.680;23.324;2023-05-19T01:49:27;95500.81;;;12.19;100.00
13027;BME280;6580;42.680;23.324;2023-05-19T01:52:16;95498.47;;;12.24;100.00
13027;BME280;6580;42.680;23.324;2023-05-19T01:55:01;95500.31;;;12.23;100.00
13027;BME280;6580;42.680;23.324;2023-05-19T01:57:58;95494.44;;;12.20;100.00
13027;BME280;6580;42.680;23.324;2023-05-19T02:00:51;95503.75;;;12.08;100.00
13027;BME280;6580;42.680;23.324;2023-05-19T02:04:06;95498.78;;;12.21;100.00
13027;BME280;6580;42.680;23.324;2023-05-19T02:07:07;95504.59;;;12.09;100.00
13027;BME280;6580;42.680;23.324;2023-05-19T02:10:00;95490.09;;;12.11;100.00
13027;BME280;6580;42.680;23.324;2023-05-19T02:12:52;95501.63;;;12.19;100.00
13027;BME280;6580;42.680;23.324;2023-05-19T02:15:40;95506.78;;;12.13;100.00
13027;BME280;6580;42.680;23.324;2023-05-19T02:18:27;95503.44;;;12.11;100.00
13027;BME280;6580;42.680;23.324;2023-05-19T02:21:14;95507.53;;;12.31;100.00
13027;BME280;6580;42.680;23.324;2023-05-19T02:24:08;95504.59;;;12.09;100.00
13027;BME280;6580;42.680;23.324;2023-05-19T02:26:54;95506.47;;;12.16;100.00
13027;BME280;6580;42.680;23.324;2023-05-19T02:29:40;95503.94;;;12.14;100.00
13027;BME280;6580;42.680;23.324;2023-05-19T02:32:25;95500.94;;;12.10;100.00
13027;BME280;6580;42.680;23.324;2023-05-19T02:35:11;95503.44;;;12.11;100.00
13027;BME280;6580;42.680;23.324;2023-05-19T02:37:59;95509.69;;;11.94;100.00
13027;BME280;6580;42.680;23.324;2023-05-19T02:40:46;95518.50;;;11.87;100.00
13027;BME280;6580;42.680;23.324;2023-05-19T02:43:33;95515.34;;;11.91;100.00
13027;BME280;6580;42.680;23.324;2023-05-19T02:46:19;95517.63;;;11.78;100.00
13027;BME280;6580;42.680;23.324;2023-05-19T02:49:06;95517.50;;;11.88;100.00
13027;BME280;6580;42.680;23.324;2023-05-19T02:51:52;95521.06;;;11.96;100.00
13027;BME280;6580;42.680;23.324;2023-05-19T02:54:38;95508.22;;;12.00;100.00
13027;BME280;6580;42.680;23.324;2023-05-19T02:57:28;95511.75;;;12.00;100.00
13027;BME280;6580;42.680;23.324;2023-05-19T03:00:15;95520.06;;;11.97;100.00
13027;BME280;6580;42.680;23.324;2023-05-19T03:03:01;95518.22;;;11.98;100.00
13027;BME280;6580;42.680;23.324;2023-05-19T03:06:02;95523.22;;;12.01;100.00
13027;BME280;6580;42.680;23.324;2023-05-19T03:08:48;95516.34;;;11.90;100.00
13027;BME280;6580;42.680;23.324;2023-05-19T03:11:36;95519.50;;;11.86;100.00
13027;BME280;6580;42.680;23.324;2023-05-19T03:14:23;95528.19;;;11.88;100.00
13027;BME280;6580;42.680;23.324;2023-05-19T03:17:10;95536.94;;;12.06;100.00
13027;BME280;6580;42.680;23.324;2023-05-19T03:19:59;95542.09;;;11.99;100.00
13027;BME280;6580;42.680;23.324;2023-05-19T03:22:45;95530.38;;;11.92;100.00
13027;BME280;6580;42.680;23.324;2023-05-19T03:25:30;95516.72;;;11.95;100.00
13027;BME280;6580;42.680;23.324;2023-05-19T03:28:16;95524.97;;;12.10;100.00
13027;BME280;6580;42.680;23.324;2023-05-19T03:31:05;95528.78;;;12.07;100.00
13027;BME280;6580;42.680;23.324;2023-05-19T03:33:54;95527.41;;;12.03;100.00
13027;BME280;6580;42.680;23.324;2023-05-19T03:36:40;95526.97;;;12.15;100.00
13027;BME280;6580;42.680;23.324;2023-05-19T03:39:28;95531.44;;;12.07;100.00
13027;BME280;6580;42.680;23.324;2023-05-19T03:42:17;95529.16;;;12.20;100.00
13027;BME280;6580;42.680;23.324;2023-05-19T03:45:05;95527.81;;;12.16;100.00
13027;BME280;6580;42.680;23.324;2023-05-19T03:47:52;95527.84;;;12.24;100.00
13027;BME280;6580;42.680;23.324;2023-05-19T03:50:41;95523.91;;;12.36;100.00
13027;BME280;6580;42.680;23.324;2023-05-19T03:53:31;95526.22;;;12.31;100.00
13027;BME280;6580;42.680;23.324;2023-05-19T03:56:20;95531.44;;;12.48;100.00
13027;BME280;6580;42.680;23.324;2023-05-19T03:59:11;95525.94;;;12.50;100.00
13027;BME280;6580;42.680;23.324;2023-05-19T04:01:57;95532.84;;;12.60;100.00
13027;BME280;6580;42.680;23.324;2023-05-19T04:04:45;95531.66;;;12.63;100.00
13027;BME280;6580;42.680;23.324;2023-05-19T04:07:31;95531.38;;;12.74;100.00
13027;BME280;6580;42.680;23.324;2023-05-19T04:10:18;95542.81;;;13.08;100.00
13027;BME280;6580;42.680;23.324;2023-05-19T04:13:03;95527.78;;;13.15;100.00
13027;BME280;6580;42.680;23.324;2023-05-19T04:15:50;95526.78;;;13.31;100.00
13027;BME280;6580;42.680;23.324;2023-05-19T04:18:38;95525.97;;;13.31;100.00
13027;BME280;6580;42.680;23.324;2023-05-19T04:21:26;95536.13;;;13.51;100.00
13027;BME280;6580;42.680;23.324;2023-05-19T04:24:12;95528.44;;;13.56;100.00
13027;BME280;6580;42.680;23.324;2023-05-19T04:26:59;95531.25;;;13.87;100.00
13027;BME280;6580;42.680;23.324;2023-05-19T04:29:45;95532.25;;;13.86;100.00
13027;BME280;6580;42.680;23.324;2023-05-19T04:32:32;95538.09;;;13.97;100.00
13027;BME280;6580;42.680;23.324;2023-05-19T04:35:20;95541.44;;;14.15;100.00
13027;BME280;6580;42.680;23.324;2023-05-19T04:38:12;95533.22;;;14.09;100.00
13027;BME280;6580;42.680;23.324;2023-05-19T04:41:03;95542.66;;;14.43;100.00
13027;BME280;6580;42.680;23.324;2023-05-19T04:43:50;95542.00;;;14.41;100.00
13027;BME280;6580;42.680;23.324;2023-05-19T04:46:38;95535.22;;;14.15;100.00
13027;BME280;6580;42.680;23.324;2023-05-19T04:49:28;95537.56;;;14.25;100.00
13027;BME280;6580;42.680;23.324;2023-05-19T04:52:14;95535.38;;;14.21;100.00
13027;BME280;6580;42.680;23.324;2023-05-19T04:55:07;95541.72;;;14.36;100.00
13027;BME280;6580;42.680;23.324;2023-05-19T04:57:55;95541.03;;;14.34;100.00
13027;BME280;6580;42.680;23.324;2023-05-19T05:00:41;95532.13;;;14.41;100.00
13027;BME280;6580;42.680;23.324;2023-05-19T05:03:29;95540.91;;;14.66;100.00
13027;BME280;6580;42.680;23.324;2023-05-19T05:06:18;95536.88;;;15.23;100.00
13027;BME280;6580;42.680;23.324;2023-05-19T05:09:06;95539.28;;;15.99;100.00
13027;BME280;6580;42.680;23.324;2023-05-19T05:11:55;95542.28;;;15.82;100.00
13027;BME280;6580;42.680;23.324;2023-05-19T05:14:42;95535.34;;;16.38;100.00
13027;BME280;6580;42.680;23.324;2023-05-19T05:17:28;95537.31;;;15.93;100.00
13027;BME280;6580;42.680;23.324;2023-05-19T05:20:17;95531.59;;;16.83;100.00
13027;BME280;6580;42.680;23.324;2023-05-19T05:23:04;95529.41;;;16.28;100.00
13027;BME280;6580;42.680;23.324;2023-05-19T05:25:53;95521.16;;;16.44;100.00
13027;BME280;6580;42.680;23.324;2023-05-19T05:28:41;95525.16;;;17.33;100.00
13027;BME280;6580;42.680;23.324;2023-05-19T05:31:30;95525.06;;;17.62;98.08
13027;BME280;6580;42.680;23.324;2023-05-19T05:34:15;95521.06;;;17.37;96.18
13027;BME280;6580;42.680;23.324;2023-05-19T05:37:01;95532.34;;;18.17;93.40
13027;BME280;6580;42.680;23.324;2023-05-19T05:39:53;95524.50;;;18.49;92.51
13027;BME280;6580;42.680;23.324;2023-05-19T05:42:42;95531.78;;;18.89;84.45
13027;BME280;6580;42.680;23.324;2023-05-19T05:45:30;95523.53;;;19.82;81.66
13027;BME280;6580;42.680;23.324;2023-05-19T05:48:16;95513.16;;;20.31;76.21
13027;BME280;6580;42.680;23.324;2023-05-19T05:51:06;95519.00;;;20.09;75.27
13027;BME280;6580;42.680;23.324;2023-05-19T05:53:53;95524.13;;;20.62;72.58
13027;BME280;6580;42.680;23.324;2023-05-19T05:56:40;95516.56;;;21.40;70.55
13027;BME280;6580;42.680;23.324;2023-05-19T05:59:26;95525.00;;;21.94;64.66
13027;BME280;6580;42.680;23.324;2023-05-19T06:02:14;95528.19;;;21.84;64.68
13027;BME280;6580;42.680;23.324;2023-05-19T06:05:00;95528.53;;;20.31;69.30
13027;BME280;6580;42.680;23.324;2023-05-19T06:07:46;95550.09;;;19.46;74.07
13027;BME280;6580;42.680;23.324;2023-05-19T06:10:33;95547.13;;;19.29;76.98
13027;BME280;6580;42.680;23.324;2023-05-19T06:13:22;95546.00;;;19.83;74.85
13027;BME280;6580;42.680;23.324;2023-05-19T06:16:10;95544.56;;;21.71;67.12
13027;BME280;6580;42.680;23.324;2023-05-19T06:18:57;95540.78;;;22.34;61.44
13027;BME280;6580;42.680;23.324;2023-05-19T06:21:43;95533.06;;;22.31;60.65
13027;BME280;6580;42.680;23.324;2023-05-19T06:24:29;95532.53;;;21.92;59.64
13027;BME280;6580;42.680;23.324;2023-05-19T06:27:15;95535.03;;;21.93;61.33
13027;BME280;6580;42.680;23.324;2023-05-19T06:30:01;95529.16;;;21.22;62.26
13027;BME280;6580;42.680;23.324;2023-05-19T06:32:48;95535.47;;;21.53;64.58
13027;BME280;6580;42.680;23.324;2023-05-19T06:35:35;95530.19;;;22.93;59.88
13027;BME280;6580;42.680;23.324;2023-05-19T06:38:22;95531.28;;;23.86;55.38
13027;BME280;6580;42.680;23.324;2023-05-19T06:41:09;95527.13;;;24.13;52.51
13027;BME280;6580;42.680;23.324;2023-05-19T06:43:55;95528.28;;;24.69;49.84
13027;BME280;6580;42.680;23.324;2023-05-19T06:46:41;95531.81;;;23.48;50.12
13027;BME280;6580;42.680;23.324;2023-05-19T06:49:27;95534.34;;;23.78;50.04
13027;BME280;6580;42.680;23.324;2023-05-19T06:52:18;95521.06;;;24.52;49.61
13027;BME280;6580;42.680;23.324;2023-05-19T06:55:07;95542.22;;;23.51;49.34
13027;BME280;6580;42.680;23.324;2023-05-19T06:57:54;95538.91;;;23.19;50.86
13027;BME280;6580;42.680;23.324;2023-05-19T07:00:46;95542.81;;;24.00;48.19
13027;BME280;6580;42.680;23.324;2023-05-19T07:03:33;95529.88;;;25.39;46.30
13027;BME280;6580;42.680;23.324;2023-05-19T07:06:20;95537.88;;;25.96;45.23
13027;BME280;6580;42.680;23.324;2023-05-19T07:09:07;95535.25;;;26.01;44.55
13027;BME280;6580;42.680;23.324;2023-05-19T07:11:53;95537.25;;;26.22;42.98
13027;BME280;6580;42.680;23.324;2023-05-19T07:14:39;95532.34;;;26.69;41.47
13027;BME280;6580;42.680;23.324;2023-05-19T07:17:27;95540.47;;;26.64;40.67
13027;BME280;6580;42.680;23.324;2023-05-19T07:20:16;95545.19;;;25.79;41.42
13027;BME280;6580;42.680;23.324;2023-05-19T07:23:01;95541.16;;;25.31;43.00
13027;BME280;6580;42.680;23.324;2023-05-19T07:25:53;95542.13;;;25.02;43.11
13027;BME280;6580;42.680;23.324;2023-05-19T07:28:42;95555.72;;;22.85;48.46
13027;BME280;6580;42.680;23.324;2023-05-19T07:31:30;95534.38;;;24.19;46.14
13027;BME280;6580;42.680;23.324;2023-05-19T07:34:16;95538.09;;;25.28;44.54
13027;BME280;6580;42.680;23.324;2023-05-19T07:37:02;95543.94;;;23.81;46.53
13027;BME280;6580;42.680;23.324;2023-05-19T07:39:47;95547.03;;;23.66;48.15
13027;BME280;6580;42.680;23.324;2023-05-19T07:42:35;95552.50;;;21.66;53.41
13027;BME280;6580;42.680;23.324;2023-05-19T07:45:21;95545.28;;;23.43;50.03
13027;BME280;6580;42.680;23.324;2023-05-19T07:48:07;95542.03;;;25.20;45.34
13027;BME280;6580;42.680;23.324;2023-05-19T07:50:53;95527.31;;;26.61;42.82
13027;BME280;6580;42.680;23.324;2023-05-19T07:53:39;95532.47;;;27.28;41.09
13027;BME280;6580;42.680;23.324;2023-05-19T07:56:24;95534.50;;;27.59;39.17
13027;BME280;6580;42.680;23.324;2023-05-19T07:59:15;95520.53;;;28.03;38.65
13027;BME280;6580;42.680;23.324;2023-05-19T08:02:01;95534.84;;;26.54;42.72
13027;BME280;6580;42.680;23.324;2023-05-19T08:04:46;95525.38;;;28.22;38.97
13027;BME280;6580;42.680;23.324;2023-05-19T08:07:33;95536.63;;;27.14;38.89
13027;BME280;6580;42.680;23.324;2023-05-19T08:10:22;95525.53;;;25.94;40.84
13027;BME280;6580;42.680;23.324;2023-05-19T08:13:08;95521.09;;;26.65;39.73
13027;BME280;6580;42.680;23.324;2023-05-19T08:15:56;95528.44;;;26.97;38.63
13027;BME280;6580;42.680;23.324;2023-05-19T08:18:48;95521.88;;;28.00;38.13
13027;BME280;6580;42.680;23.324;2023-05-19T08:21:33;95524.25;;;28.18;37.35
13027;BME280;6580;42.680;23.324;2023-05-19T08:24:20;95530.72;;;28.29;38.26
13027;BME280;6580;42.680;23.324;2023-05-19T08:27:05;95518.84;;;29.74;35.08
13027;BME280;6580;42.680;23.324;2023-05-19T08:29:52;95517.09;;;29.06;35.61
13027;BME280;6580;42.680;23.324;2023-05-19T08:32:39;95510.38;;;29.34;36.32
13027;BME280;6580;42.680;23.324;2023-05-19T08:35:25;95516.03;;;25.96;40.28
13027;BME280;6580;42.680;23.324;2023-05-19T08:38:14;95515.44;;;26.88;39.71
13027;BME280;6580;42.680;23.324;2023-05-19T08:41:00;95509.91;;;28.64;36.64
13027;BME280;6580;42.680;23.324;2023-05-19T08:43:45;95520.28;;;28.62;36.32
13027;BME280;6580;42.680;23.324;2023-05-19T08:46:33;95507.78;;;28.71;36.91
13027;BME280;6580;42.680;23.324;2023-05-19T08:49:26;95511.13;;;28.20;37.30
13027;BME280;6580;42.680;23.324;2023-05-19T08:52:31;95506.97;;;28.76;36.53
13027;BME280;6580;42.680;23.324;2023-05-19T08:55:26;95516.97;;;29.33;35.81
13027;BME280;6580;42.680;23.324;2023-05-19T08:58:16;95521.53;;;27.92;38.04
13027;BME280;6580;42.680;23.324;2023-05-19T09:01:04;95512.38;;;28.08;37.24
13027;BME280;6580;42.680;23.324;2023-05-19T09:03:56;95502.47;;;28.60;36.21
13027;BME280;6580;42.680;23.324;2023-05-19T09:06:43;95501.78;;;28.79;35.85
13027;BME280;6580;42.680;23.324;2023-05-19T09:09:29;95500.81;;;28.27;36.49
13027;BME280;6580;42.680;23.324;2023-05-19T09:12:16;95506.81;;;27.34;38.85
13027;BME280;6580;42.680;23.324;2023-05-19T09:15:03;95500.63;;;27.22;38.68
13027;BME280;6580;42.680;23.324;2023-05-19T09:17:50;95494.38;;;27.90;37.77
13027;BME280;6580;42.680;23.324;2023-05-19T09:20:39;95486.59;;;28.30;36.89
13027;BME280;6580;42.680;23.324;2023-05-19T09:23:28;95481.13;;;28.67;37.07
13027;BME280;6580;42.680;23.324;2023-05-19T09:26:16;95462.50;;;29.05;34.67
13027;BME280;6580;42.680;23.324;2023-05-19T09:29:11;95471.91;;;29.85;34.45
13027;BME280;6580;42.680;23.324;2023-05-19T09:31:59;95474.31;;;29.10;34.72
13027;BME280;6580;42.680;23.324;2023-05-19T09:35:03;95469.53;;;28.55;36.53
13027;BME280;6580;42.680;23.324;2023-05-19T09:37:49;95474.22;;;30.33;33.99
13027;BME280;6580;42.680;23.324;2023-05-19T09:40:36;95473.63;;;29.30;34.47
13027;BME280;6580;42.680;23.324;2023-05-19T09:43:22;95476.00;;;27.65;37.17
13027;BME280;6580;42.680;23.324;2023-05-19T09:46:08;95474.59;;;28.36;36.53
13027;BME280;6580;42.680;23.324;2023-05-19T09:48:56;95467.81;;;28.49;35.84
13027;BME280;6580;42.680;23.324;2023-05-19T09:51:43;95454.63;;;28.82;34.64
13027;BME280;6580;42.680;23.324;2023-05-19T09:54:29;95470.22;;;28.14;35.76
13027;BME280;6580;42.680;23.324;2023-05-19T09:57:17;95465.41;;;28.84;35.08
13027;BME280;6580;42.680;23.324;2023-05-19T10:00:05;95457.47;;;30.19;33.36
13027;BME280;6580;42.680;23.324;2023-05-19T10:03:08;95464.59;;;30.15;33.29
13027;BME280;6580;42.680;23.324;2023-05-19T10:05:54;95458.75;;;29.87;32.72
13027;BME280;6580;42.680;23.324;2023-05-19T10:08:39;95458.31;;;30.30;32.49
13027;BME280;6580;42.680;23.324;2023-05-19T10:11:28;95454.94;;;29.98;32.93
13027;BME280;6580;42.680;23.324;2023-05-19T10:14:15;95468.50;;;27.55;36.17
13027;BME280;6580;42.680;23.324;2023-05-19T10:17:04;95457.88;;;27.59;35.84
13027;BME280;6580;42.680;23.324;2023-05-19T10:19:52;95454.44;;;28.57;34.69
13027;BME280;6580;42.680;23.324;2023-05-19T10:22:43;95444.59;;;29.49;33.97
13027;BME280;6580;42.680;23.324;2023-05-19T10:25:30;95443.84;;;29.68;32.75
13027;BME280;6580;42.680;23.324;2023-05-19T10:28:18;95449.19;;;30.04;32.28
13027;BME280;6580;42.680;23.324;2023-05-19T10:31:12;95436.72;;;28.65;33.31
13027;BME280;6580;42.680;23.324;2023-05-19T10:34:13;95436.19;;;28.73;32.92
13027;BME280;6580;42.680;23.324;2023-05-19T10:37:14;95437.22;;;28.98;31.93
13027;BME280;6580;42.680;23.324;2023-05-19T10:40:07;95443.56;;;28.04;34.49
13027;BME280;6580;42.680;23.324;2023-05-19T10:43:09;95420.91;;;29.33;32.97
13027;BME280;6580;42.680;23.324;2023-05-19T10:45:59;95443.06;;;29.78;31.59
13027;BME280;6580;42.680;23.324;2023-05-19T10:48:46;95436.28;;;30.50;30.48
13027;BME280;6580;42.680;23.324;2023-05-19T10:51:32;95425.00;;;31.06;29.72
13027;BME280;6580;42.680;23.324;2023-05-19T10:54:38;95422.84;;;30.58;29.59
13027;BME280;6580;42.680;23.324;2023-05-19T10:57:25;95415.13;;;30.65;29.87
13027;BME280;6580;42.680;23.324;2023-05-19T11:00:26;95409.63;;;30.45;30.31
13027;BME280;6580;42.680;23.324;2023-05-19T11:03:13;95419.94;;;28.56;33.40
13027;BME280;6580;42.680;23.324;2023-05-19T11:06:28;95414.78;;;29.82;31.10
13027;BME280;6580;42.680;23.324;2023-05-19T11:09:18;95409.63;;;30.40;29.50
13027;BME280;6580;42.680;23.324;2023-05-19T11:12:08;95410.72;;;28.77;32.53
13027;BME280;6580;42.680;23.324;2023-05-19T11:14:57;95420.03;;;29.17;31.86
13027;BME280;6580;42.680;23.324;2023-05-19T11:17:47;95409.81;;;28.25;32.47
13027;BME280;6580;42.680;23.324;2023-05-19T11:20:37;95416.00;;;27.37;33.73
13027;BME280;6580;42.680;23.324;2023-05-19T11:23:25;95424.53;;;26.60;34.90
13027;BME280;6580;42.680;23.324;2023-05-19T11:26:12;95418.84;;;26.83;35.72
13027;BME280;6580;42.680;23.324;2023-05-19T11:28:59;95418.41;;;26.03;35.73
13027;BME280;6580;42.680;23.324;2023-05-19T11:31:48;95412.06;;;25.81;36.42
13027;BME280;6580;42.680;23.324;2023-05-19T11:34:35;95415.59;;;25.82;38.00
13027;BME280;6580;42.680;23.324;2023-05-19T11:37:22;95401.78;;;25.88;38.52
13027;BME280;6580;42.680;23.324;2023-05-19T11:40:09;95418.53;;;25.64;37.23
13027;BME280;6580;42.680;23.324;2023-05-19T11:42:57;95410.59;;;25.35;38.49
13027;BME280;6580;42.680;23.324;2023-05-19T11:45:44;95407.63;;;24.97;38.43
13027;BME280;6580;42.680;23.324;2023-05-19T11:48:30;95426.75;;;24.28;46.12
13027;BME280;6580;42.680;23.324;2023-05-19T11:51:20;95452.72;;;23.02;55.75
13027;BME280;6580;42.680;23.324;2023-05-19T11:54:07;95443.13;;;21.48;78.68
13027;BME280;6580;42.680;23.324;2023-05-19T11:56:54;95451.84;;;20.82;88.83
13027;BME280;6580;42.680;23.324;2023-05-19T11:59:39;95458.63;;;20.21;93.23
13027;BME280;6580;42.680;23.324;2023-05-19T12:02:28;95469.44;;;20.34;93.15
13027;BME280;6580;42.680;23.324;2023-05-19T12:05:18;95483.13;;;20.58;98.98
13027;BME280;6580;42.680;23.324;2023-05-19T12:08:05;95501.84;;;20.60;100.00
13027;BME280;6580;42.680;23.324;2023-05-19T12:10:51;95490.44;;;19.67;96.20
13027;BME280;6580;42.680;23.324;2023-05-19T12:13:40;95522.59;;;19.24;97.75
13027;BME280;6580;42.680;23.324;2023-05-19T12:16:32;95519.06;;;19.30;97.12
13027;BME280;6580;42.680;23.324;2023-05-19T12:19:17;95511.19;;;19.47;98.10
13027;BME280;6580;42.680;23.324;2023-05-19T12:22:05;95523.47;;;18.50;99.23
13027;BME280;6580;42.680;23.324;2023-05-19T12:24:51;95524.16;;;18.58;99.98
13027;BME280;6580;42.680;23.324;2023-05-19T12:27:37;95530.06;;;17.93;100.00
13027;BME280;6580;42.680;23.324;2023-05-19T12:30:25;95521.28;;;17.84;100.00
13027;BME280;6580;42.680;23.324;2023-05-19T12:33:13;95517.44;;;17.93;100.00
13027;BME280;6580;42.680;23.324;2023-05-19T12:36:02;95522.56;;;17.88;95.91
13027;BME280;6580;42.680;23.324;2023-05-19T12:38:56;95506.03;;;17.70;98.28
13027;BME280;6580;42.680;23.324;2023-05-19T12:41:43;95503.16;;;18.54;95.78
13027;BME280;6580;42.680;23.324;2023-05-19T12:44:30;95496.75;;;19.08;87.65
13027;BME280;6580;42.680;23.324;2023-05-19T12:47:28;95489.03;;;19.05;82.90
13027;BME280;6580;42.680;23.324;2023-05-19T12:50:15;95481.41;;;19.09;79.10
13027;BME280;6580;42.680;23.324;2023-05-19T12:53:01;95478.53;;;19.30;76.62
13027;BME280;6580;42.680;23.324;2023-05-19T12:55:50;95462.44;;;18.96;78.01
13027;BME280;6580;42.680;23.324;2023-05-19T12:58:36;95463.19;;;19.30;74.42
13027;BME280;6580;42.680;23.324;2023-05-19T13:01:22;95452.38;;;19.37;72.37
13027;BME280;6580;42.680;23.324;2023-05-19T13:04:10;95461.53;;;19.48;72.94
13027;BME280;6580;42.680;23.324;2023-05-19T13:06:58;95454.06;;;19.50;68.35
13027;BME280;6580;42.680;23.324;2023-05-19T13:09:43;95453.84;;;19.84;67.29
13027;BME280;6580;42.680;23.324;2023-05-19T13:12:29;95451.38;;;19.76;68.35
13027;BME280;6580;42.680;23.324;2023-05-19T13:15:16;95437.25;;;20.07;67.45
13027;BME280;6580;42.680;23.324;2023-05-19T13:18:03;95434.72;;;20.25;64.88
13027;BME280;6580;42.680;23.324;2023-05-19T13:20:52;95434.00;;;20.55;64.33
13027;BME280;6580;42.680;23.324;2023-05-19T13:23:39;95425.84;;;21.12;63.56
13027;BME280;6580;42.680;23.324;2023-05-19T13:26:24;95422.25;;;21.55;60.71
13027;BME280;6580;42.680;23.324;2023-05-19T13:29:11;95428.44;;;21.31;58.18
13027;BME280;6580;42.680;23.324;2023-05-19T13:31:57;95422.09;;;21.13;52.93
13027;BME280;6580;42.680;23.324;2023-05-19T13:34:47;95430.59;;;21.23;55.83
13027;BME280;6580;42.680;23.324;2023-05-19T13:37:34;95430.63;;;20.66;54.20
13027;BME280;6580;42.680;23.324;2023-05-19T13:40:23;95424.19;;;20.60;56.43
13027;BME280;6580;42.680;23.324;2023-05-19T13:43:10;95432.97;;;21.06;54.70
13027;BME280;6580;42.680;23.324;2023-05-19T13:45:59;95431.16;;;20.94;55.00
13027;BME280;6580;42.680;23.324;2023-05-19T13:48:45;95424.75;;;20.75;53.96
13027;BME280;6580;42.680;23.324;2023-05-19T13:51:30;95424.06;;;21.30;53.30
13027;BME280;6580;42.680;23.324;2023-05-19T13:54:18;95424.38;;;21.16;52.05
13027;BME280;6580;42.680;23.324;2023-05-19T13:57:04;95428.97;;;21.15;52.78
13027;BME280;6580;42.680;23.324;2023-05-19T13:59:56;95429.13;;;20.76;52.65
13027;BME280;6580;42.680;23.324;2023-05-19T14:02:41;95427.25;;;20.77;53.11
13027;BME280;6580;42.680;23.324;2023-05-19T14:05:28;95418.06;;;20.91;52.90
13027;BME280;6580;42.680;23.324;2023-05-19T14:08:15;95418.16;;;21.09;50.98
13027;BME280;6580;42.680;23.324;2023-05-19T14:11:07;95427.16;;;21.03;53.04
13027;BME280;6580;42.680;23.324;2023-05-19T14:13:54;95421.44;;;21.17;52.26
13027;BME280;6580;42.680;23.324;2023-05-19T14:16:40;95417.94;;;21.10;50.97
13027;BME280;6580;42.680;23.324;2023-05-19T14:19:27;95419.84;;;21.10;51.59
13027;BME280;6580;42.680;23.324;2023-05-19T14:22:14;95416.84;;;21.18;51.03
13027;BME280;6580;42.680;23.324;2023-05-19T14:25:09;95418.94;;;21.16;52.20
13027;BME280;6580;42.680;23.324;2023-05-19T14:28:00;95421.28;;;21.12;52.52
13027;BME280;6580;42.680;23.324;2023-05-19T14:30:46;95426.72;;;21.74;50.08
13027;BME280;6580;42.680;23.324;2023-05-19T14:33:31;95414.78;;;21.75;49.95
13027;BME280;6580;42.680;23.324;2023-05-19T14:36:21;95419.81;;;21.71;49.67
13027;BME280;6580;42.680;23.324;2023-05-19T14:39:11;95434.72;;;22.11;47.36
13027;BME280;6580;42.680;23.324;2023-05-19T14:41:57;95427.44;;;22.05;46.22
13027;BME280;6580;42.680;23.324;2023-05-19T14:44:46;95428.19;;;21.94;46.96
13027;BME280;6580;42.680;23.324;2023-05-19T14:47:33;95432.88;;;22.05;46.68
13027;BME280;6580;42.680;23.324;2023-05-19T14:50:21;95429.28;;;22.11;47.55
13027;BME280;6580;42.680;23.324;2023-05-19T14:53:08;95435.22;;;22.44;45.08
13027;BME280;6580;42.680;23.324;2023-05-19T14:55:53;95429.66;;;22.57;45.26